sensor_id;sensor_type;location;lat;lon;timestamp;temperature;humidity
31309;DHT22;17936;52.446;10.840;2022-12-18T00:02:18;-7.60;99.30
31309;DHT22;17936;52.446;10.840;2022-12-18T00:04:43;-7.70;97.00
31309;DHT22;17936;52.446;10.840;2022-12-18T00:07:09;-7.80;94.30
31309;DHT22;17936;52.446;10.840;2022-12-18T00:09:34;-7.70;97.20
31309;DHT22;17936;52.446;10.840;2022-12-18T00:12:00;-7.80;96.50
31309;DHT22;17936;52.446;10.840;2022-12-18T00:14:25;-7.80;97.20
31309;DHT22;17936;52.446;10.840;2022-12-18T00:16:51;-7.50;99.90
31309;DHT22;17936;52.446;10.840;2022-12-18T00:19:16;-7.40;99.90
31309;DHT22;17936;52.446;10.840;2022-12-18T00:21:48;-7.50;98.70
31309;DHT22;17936;52.446;10.840;2022-12-18T00:24:16;-7.50;95.80
31309;DHT22;17936;52.446;10.840;2022-12-18T00:26:41;-7.50;95.50
31309;DHT22;17936;52.446;10.840;2022-12-18T00:29:11;-7.50;93.90
31309;DHT22;17936;52.446;10.840;2022-12-18T00:31:40;-7.50;91.90
31309;DHT22;17936;52.446;10.840;2022-12-18T00:34:06;-7.70;86.50
31309;DHT22;17936;52.446;10.840;2022-12-18T00:36:33;-7.60;85.60
31309;DHT22;17936;52.446;10.840;2022-12-18T00:39:00;-7.60;83.40
31309;DHT22;17936;52.446;10.840;2022-12-18T00:41:26;-7.50;82.40
31309;DHT22;17936;52.446;10.840;2022-12-18T00:44:13;-7.50;81.50
31309;DHT22;17936;52.446;10.840;2022-12-18T00:46:39;-7.50;77.10
31309;DHT22;17936;52.446;10.840;2022-12-18T00:49:07;-7.60;71.90
31309;DHT22;17936;52.446;10.840;2022-12-18T00:51:33;-7.60;73.10
31309;DHT22;17936;52.446;10.840;2022-12-18T00:53:59;-7.70;64.90
31309;DHT22;17936;52.446;10.840;2022-12-18T00:56:24;-7.90;73.70
31309;DHT22;17936;52.446;10.840;2022-12-18T00:58:50;-7.80;76.70
31309;DHT22;17936;52.446;10.840;2022-12-18T01:01:16;-7.80;82.30
31309;DHT22;17936;52.446;10.840;2022-12-18T01:03:42;-7.70;84.90
31309;DHT22;17936;52.446;10.840;2022-12-18T01:06:10;-7.70;82.80
31309;DHT22;17936;52.446;10.840;2022-12-18T01:08:37;-7.70;79.10
31309;DHT22;17936;52.446;10.840;2022-12-18T01:11:14;-7.80;75.20
31309;DHT22;17936;52.446;10.840;2022-12-18T01:13:43;-7.70;75.30
31309;DHT22;17936;52.446;10.840;2022-12-18T01:16:15;-7.70;73.70
31309;DHT22;17936;52.446;10.840;2022-12-18T01:18:41;-7.70;71.60
31309;DHT22;17936;52.446;10.840;2022-12-18T01:21:12;-7.70;68.60
31309;DHT22;17936;52.446;10.840;2022-12-18T01:23:38;-7.70;68.40
31309;DHT22;17936;52.446;10.840;2022-12-18T01:26:30;-7.80;61.50
31309;DHT22;17936;52.446;10.840;2022-12-18T01:28:56;-8.00;56.50
31309;DHT22;17936;52.446;10.840;2022-12-18T01:31:27;-8.10;59.20
31309;DHT22;17936;52.446;10.840;2022-12-18T01:33:54;-8.20;72.10
31309;DHT22;17936;52.446;10.840;2022-12-18T01:36:25;-8.00;84.80
31309;DHT22;17936;52.446;10.840;2022-12-18T01:38:51;-8.10;81.00
31309;DHT22;17936;52.446;10.840;2022-12-18T01:41:21;-8.10;83.60
31309;DHT22;17936;52.446;10.840;2022-12-18T01:43:50;-8.00;86.30
31309;DHT22;17936;52.446;10.840;2022-12-18T01:46:18;-8.00;85.00
31309;DHT22;17936;52.446;10.840;2022-12-18T01:48:47;-8.10;75.70
31309;DHT22;17936;52.446;10.840;2022-12-18T01:51:13;-8.10;77.30
31309;DHT22;17936;52.446;10.840;2022-12-18T01:53:40;-8.10;75.30
31309;DHT22;17936;52.446;10.840;2022-12-18T01:56:07;-8.10;72.10
31309;DHT22;17936;52.446;10.840;2022-12-18T01:59:02;-8.20;71.30
31309;DHT22;17936;52.446;10.840;2022-12-18T02:01:29;-8.40;70.20
31309;DHT22;17936;52.446;10.840;2022-12-18T02:03:55;-8.20;83.60
31309;DHT22;17936;52.446;10.840;2022-12-18T02:06:29;-8.10;87.30
31309;DHT22;17936;52.446;10.840;2022-12-18T02:09:13;-8.10;86.30
31309;DHT22;17936;52.446;10.840;2022-12-18T02:14:32;-8.50;74.90
31309;DHT22;17936;52.446;10.840;2022-12-18T02:23:19;-8.60;86.50
31309;DHT22;17936;52.446;10.840;2022-12-18T02:26:18;-8.50;91.20
31309;DHT22;17936;52.446;10.840;2022-12-18T02:28:58;-8.50;91.50
31309;DHT22;17936;52.446;10.840;2022-12-18T02:31:28;-8.30;96.30
31309;DHT22;17936;52.446;10.840;2022-12-18T02:33:56;-8.30;94.70
31309;DHT22;17936;52.446;10.840;2022-12-18T02:36:24;-8.30;91.30
31309;DHT22;17936;52.446;10.840;2022-12-18T02:38:51;-8.40;87.30
31309;DHT22;17936;52.446;10.840;2022-12-18T02:41:18;-8.30;85.70
31309;DHT22;17936;52.446;10.840;2022-12-18T02:43:48;-8.30;80.30
31309;DHT22;17936;52.446;10.840;2022-12-18T02:46:34;-8.40;74.70
31309;DHT22;17936;52.446;10.840;2022-12-18T02:49:18;-8.40;67.90
31309;DHT22;17936;52.446;10.840;2022-12-18T02:52:25;-8.70;66.30
31309;DHT22;17936;52.446;10.840;2022-12-18T02:55:10;-8.40;83.00
31309;DHT22;17936;52.446;10.840;2022-12-18T02:57:50;-8.40;79.20
31309;DHT22;17936;52.446;10.840;2022-12-18T03:00:24;-8.30;80.60
31309;DHT22;17936;52.446;10.840;2022-12-18T03:03:10;-8.30;73.80
31309;DHT22;17936;52.446;10.840;2022-12-18T03:05:49;-8.40;67.60
31309;DHT22;17936;52.446;10.840;2022-12-18T03:08:20;-8.40;65.70
31309;DHT22;17936;52.446;10.840;2022-12-18T03:10:56;-8.50;61.60
31309;DHT22;17936;52.446;10.840;2022-12-18T03:13:36;-8.70;63.00
31309;DHT22;17936;52.446;10.840;2022-12-18T03:16:04;-8.60;73.60
31309;DHT22;17936;52.446;10.840;2022-12-18T03:18:47;-8.60;73.80
31309;DHT22;17936;52.446;10.840;2022-12-18T03:21:13;-8.60;75.00
31309;DHT22;17936;52.446;10.840;2022-12-18T03:23:46;-8.80;65.40
31309;DHT22;17936;52.446;10.840;2022-12-18T03:26:18;-9.00;86.00
31309;DHT22;17936;52.446;10.840;2022-12-18T03:28:53;-8.80;95.50
31309;DHT22;17936;52.446;10.840;2022-12-18T03:31:23;-8.60;98.20
31309;DHT22;17936;52.446;10.840;2022-12-18T03:33:54;-8.40;96.40
31309;DHT22;17936;52.446;10.840;2022-12-18T03:36:20;-8.80;84.40
31309;DHT22;17936;52.446;10.840;2022-12-18T03:38:46;-8.90;90.10
31309;DHT22;17936;52.446;10.840;2022-12-18T03:41:32;-8.60;95.80
31309;DHT22;17936;52.446;10.840;2022-12-18T03:49:57;-8.80;94.20
31309;DHT22;17936;52.446;10.840;2022-12-18T03:52:38;-8.90;95.60
31309;DHT22;17936;52.446;10.840;2022-12-18T03:55:07;-8.70;98.60
31309;DHT22;17936;52.446;10.840;2022-12-18T03:57:35;-8.80;95.70
31309;DHT22;17936;52.446;10.840;2022-12-18T04:00:05;-8.80;95.20
31309;DHT22;17936;52.446;10.840;2022-12-18T04:02:32;-8.80;96.10
31309;DHT22;17936;52.446;10.840;2022-12-18T04:05:01;-8.90;91.60
31309;DHT22;17936;52.446;10.840;2022-12-18T04:07:28;-9.00;92.50
31309;DHT22;17936;52.446;10.840;2022-12-18T04:09:56;-8.90;94.90
31309;DHT22;17936;52.446;10.840;2022-12-18T04:12:28;-8.80;97.40
31309;DHT22;17936;52.446;10.840;2022-12-18T04:14:53;-8.70;99.60
31309;DHT22;17936;52.446;10.840;2022-12-18T04:17:20;-8.60;99.10
31309;DHT22;17936;52.446;10.840;2022-12-18T04:19:45;-8.60;96.50
31309;DHT22;17936;52.446;10.840;2022-12-18T04:22:11;-8.60;94.10
31309;DHT22;17936;52.446;10.840;2022-12-18T04:24:36;-8.80;86.70
31309;DHT22;17936;52.446;10.840;2022-12-18T04:27:02;-8.70;88.80
31309;DHT22;17936;52.446;10.840;2022-12-18T04:29:28;-8.80;86.00
31309;DHT22;17936;52.446;10.840;2022-12-18T04:31:53;-8.80;89.50
31309;DHT22;17936;52.446;10.840;2022-12-18T04:34:20;-8.90;91.50
31309;DHT22;17936;52.446;10.840;2022-12-18T04:36:45;-8.90;93.90
31309;DHT22;17936;52.446;10.840;2022-12-18T04:39:11;-8.90;96.30
31309;DHT22;17936;52.446;10.840;2022-12-18T04:41:36;-8.70;99.60
31309;DHT22;17936;52.446;10.840;2022-12-18T04:44:02;-8.70;97.80
31309;DHT22;17936;52.446;10.840;2022-12-18T04:46:27;-8.70;95.80
31309;DHT22;17936;52.446;10.840;2022-12-18T04:48:53;-8.90;91.10
31309;DHT22;17936;52.446;10.840;2022-12-18T04:51:18;-8.90;91.40
31309;DHT22;17936;52.446;10.840;2022-12-18T04:53:46;-8.80;91.60
31309;DHT22;17936;52.446;10.840;2022-12-18T04:56:13;-9.00;87.90
31309;DHT22;17936;52.446;10.840;2022-12-18T04:58:40;-8.90;91.80
31309;DHT22;17936;52.446;10.840;2022-12-18T05:01:07;-8.90;94.70
31309;DHT22;17936;52.446;10.840;2022-12-18T05:03:33;-8.90;96.30
31309;DHT22;17936;52.446;10.840;2022-12-18T05:05:58;-9.00;98.60
31309;DHT22;17936;52.446;10.840;2022-12-18T05:08:24;-9.00;99.90
31309;DHT22;17936;52.446;10.840;2022-12-18T05:10:50;-9.00;99.90
31309;DHT22;17936;52.446;10.840;2022-12-18T05:13:23;-9.10;99.90
31309;DHT22;17936;52.446;10.840;2022-12-18T05:15:51;-9.10;99.90
31309;DHT22;17936;52.446;10.840;2022-12-18T05:18:17;-9.10;99.90
31309;DHT22;17936;52.446;10.840;2022-12-18T05:20:43;-9.10;99.90
31309;DHT22;17936;52.446;10.840;2022-12-18T05:23:08;-9.10;99.90
31309;DHT22;17936;52.446;10.840;2022-12-18T05:25:33;-9.20;99.90
31309;DHT22;17936;52.446;10.840;2022-12-18T05:27:59;-9.10;99.90
31309;DHT22;17936;52.446;10.840;2022-12-18T05:30:27;-9.10;99.90
31309;DHT22;17936;52.446;10.840;2022-12-18T05:32:53;-9.10;99.90
31309;DHT22;17936;52.446;10.840;2022-12-18T05:35:19;-9.10;99.90
31309;DHT22;17936;52.446;10.840;2022-12-18T05:37:44;-9.10;99.90
31309;DHT22;17936;52.446;10.840;2022-12-18T05:40:11;-9.10;99.90
31309;DHT22;17936;52.446;10.840;2022-12-18T05:42:39;-9.20;99.90
31309;DHT22;17936;52.446;10.840;2022-12-18T05:45:07;-9.20;99.90
31309;DHT22;17936;52.446;10.840;2022-12-18T05:47:35;-9.20;99.90
31309;DHT22;17936;52.446;10.840;2022-12-18T05:50:01;-9.20;99.90
31309;DHT22;17936;52.446;10.840;2022-12-18T05:52:26;-9.10;99.90
31309;DHT22;17936;52.446;10.840;2022-12-18T05:54:52;-9.20;99.90
31309;DHT22;17936;52.446;10.840;2022-12-18T05:57:17;-9.20;99.90
31309;DHT22;17936;52.446;10.840;2022-12-18T05:59:43;-9.20;99.90
31309;DHT22;17936;52.446;10.840;2022-12-18T06:02:10;-9.20;99.90
31309;DHT22;17936;52.446;10.840;2022-12-18T06:04:36;-9.10;99.90
31309;DHT22;17936;52.446;10.840;2022-12-18T06:07:04;-9.10;99.90
31309;DHT22;17936;52.446;10.840;2022-12-18T06:09:30;-9.10;99.90
31309;DHT22;17936;52.446;10.840;2022-12-18T06:11:55;-9.10;99.90
31309;DHT22;17936;52.446;10.840;2022-12-18T06:14:21;-9.10;99.90
31309;DHT22;17936;52.446;10.840;2022-12-18T06:16:46;-9.10;99.90
31309;DHT22;17936;52.446;10.840;2022-12-18T06:19:15;-9.10;99.90
31309;DHT22;17936;52.446;10.840;2022-12-18T06:21:41;-9.10;99.90
31309;DHT22;17936;52.446;10.840;2022-12-18T06:24:07;-9.10;99.90
31309;DHT22;17936;52.446;10.840;2022-12-18T06:26:32;-9.10;99.90
31309;DHT22;17936;52.446;10.840;2022-12-18T06:28:58;-9.20;99.90
31309;DHT22;17936;52.446;10.840;2022-12-18T06:31:24;-9.20;99.90
31309;DHT22;17936;52.446;10.840;2022-12-18T06:33:49;-9.20;99.90
31309;DHT22;17936;52.446;10.840;2022-12-18T06:36:15;-9.20;99.90
31309;DHT22;17936;52.446;10.840;2022-12-18T06:38:42;-9.20;99.90
31309;DHT22;17936;52.446;10.840;2022-12-18T06:41:10;-9.30;99.90
31309;DHT22;17936;52.446;10.840;2022-12-18T06:43:35;-9.30;99.90
31309;DHT22;17936;52.446;10.840;2022-12-18T06:46:02;-9.30;99.90
31309;DHT22;17936;52.446;10.840;2022-12-18T06:48:28;-9.30;99.90
31309;DHT22;17936;52.446;10.840;2022-12-18T06:50:54;-9.30;99.90
31309;DHT22;17936;52.446;10.840;2022-12-18T06:53:19;-9.30;99.90
31309;DHT22;17936;52.446;10.840;2022-12-18T06:55:45;-9.30;99.90
31309;DHT22;17936;52.446;10.840;2022-12-18T06:58:10;-9.40;99.90
31309;DHT22;17936;52.446;10.840;2022-12-18T07:00:36;-9.40;99.90
31309;DHT22;17936;52.446;10.840;2022-12-18T07:03:01;-9.40;99.90
31309;DHT22;17936;52.446;10.840;2022-12-18T07:05:29;-9.30;99.90
31309;DHT22;17936;52.446;10.840;2022-12-18T07:07:54;-9.40;99.90
31309;DHT22;17936;52.446;10.840;2022-12-18T07:10:20;-9.40;99.90
31309;DHT22;17936;52.446;10.840;2022-12-18T07:12:45;-9.50;99.90
31309;DHT22;17936;52.446;10.840;2022-12-18T07:15:11;-9.40;99.90
31309;DHT22;17936;52.446;10.840;2022-12-18T07:17:36;-9.50;99.90
31309;DHT22;17936;52.446;10.840;2022-12-18T07:20:03;-9.50;99.90
31309;DHT22;17936;52.446;10.840;2022-12-18T07:22:28;-9.50;99.90
31309;DHT22;17936;52.446;10.840;2022-12-18T07:24:54;-9.50;99.90
31309;DHT22;17936;52.446;10.840;2022-12-18T07:27:20;-9.50;99.90
31309;DHT22;17936;52.446;10.840;2022-12-18T07:29:46;-9.50;99.90
31309;DHT22;17936;52.446;10.840;2022-12-18T07:32:11;-9.50;99.90
31309;DHT22;17936;52.446;10.840;2022-12-18T07:34:37;-9.50;99.90
31309;DHT22;17936;52.446;10.840;2022-12-18T07:37:02;-9.50;99.90
31309;DHT22;17936;52.446;10.840;2022-12-18T07:39:28;-9.50;99.90
31309;DHT22;17936;52.446;10.840;2022-12-18T07:41:53;-9.50;99.90
31309;DHT22;17936;52.446;10.840;2022-12-18T07:44:37;-9.50;99.90
31309;DHT22;17936;52.446;10.840;2022-12-18T07:47:03;-9.50;99.90
31309;DHT22;17936;52.446;10.840;2022-12-18T07:49:28;-9.50;99.90
31309;DHT22;17936;52.446;10.840;2022-12-18T07:51:55;-9.50;99.90
31309;DHT22;17936;52.446;10.840;2022-12-18T07:54:22;-9.40;99.90
31309;DHT22;17936;52.446;10.840;2022-12-18T07:56:48;-9.40;99.90
31309;DHT22;17936;52.446;10.840;2022-12-18T07:59:13;-9.40;99.90
31309;DHT22;17936;52.446;10.840;2022-12-18T08:01:41;-9.30;99.90
31309;DHT22;17936;52.446;10.840;2022-12-18T08:04:06;-9.30;99.90
31309;DHT22;17936;52.446;10.840;2022-12-18T08:06:32;-9.20;99.90
31309;DHT22;17936;52.446;10.840;2022-12-18T08:08:57;-9.10;99.90
31309;DHT22;17936;52.446;10.840;2022-12-18T08:11:25;-8.90;99.90
31309;DHT22;17936;52.446;10.840;2022-12-18T08:13:50;-8.90;99.90
31309;DHT22;17936;52.446;10.840;2022-12-18T08:16:16;-8.80;99.90
31309;DHT22;17936;52.446;10.840;2022-12-18T08:18:42;-8.70;99.90
31309;DHT22;17936;52.446;10.840;2022-12-18T08:21:12;-8.70;99.90
31309;DHT22;17936;52.446;10.840;2022-12-18T08:23:38;-8.60;99.90
31309;DHT22;17936;52.446;10.840;2022-12-18T08:26:03;-8.50;99.90
31309;DHT22;17936;52.446;10.840;2022-12-18T08:28:31;-8.50;99.90
31309;DHT22;17936;52.446;10.840;2022-12-18T08:30:57;-8.40;99.60
31309;DHT22;17936;52.446;10.840;2022-12-18T08:33:22;-8.40;97.20
31309;DHT22;17936;52.446;10.840;2022-12-18T08:35:48;-8.40;96.90
31309;DHT22;17936;52.446;10.840;2022-12-18T08:38:14;-8.20;96.70
31309;DHT22;17936;52.446;10.840;2022-12-18T08:40:39;-8.20;95.70
31309;DHT22;17936;52.446;10.840;2022-12-18T08:43:05;-8.10;95.30
31309;DHT22;17936;52.446;10.840;2022-12-18T08:45:49;-8.10;94.10
31309;DHT22;17936;52.446;10.840;2022-12-18T08:48:15;-7.90;94.00
31309;DHT22;17936;52.446;10.840;2022-12-18T08:50:40;-7.90;92.70
31309;DHT22;17936;52.446;10.840;2022-12-18T08:53:06;-7.90;91.90
31309;DHT22;17936;52.446;10.840;2022-12-18T08:55:32;-7.70;92.50
31309;DHT22;17936;52.446;10.840;2022-12-18T08:57:57;-7.70;91.70
31309;DHT22;17936;52.446;10.840;2022-12-18T09:00:23;-7.70;90.10
31309;DHT22;17936;52.446;10.840;2022-12-18T09:02:48;-7.60;91.50
31309;DHT22;17936;52.446;10.840;2022-12-18T09:05:14;-7.50;90.30
31309;DHT22;17936;52.446;10.840;2022-12-18T09:07:40;-7.50;90.50
31309;DHT22;17936;52.446;10.840;2022-12-18T09:10:06;-7.30;91.90
31309;DHT22;17936;52.446;10.840;2022-12-18T09:12:31;-7.20;91.40
31309;DHT22;17936;52.446;10.840;2022-12-18T09:14:57;-7.10;90.70
31309;DHT22;17936;52.446;10.840;2022-12-18T09:17:22;-7.00;90.20
31309;DHT22;17936;52.446;10.840;2022-12-18T09:19:48;-6.90;90.70
31309;DHT22;17936;52.446;10.840;2022-12-18T09:22:13;-6.70;90.90
31309;DHT22;17936;52.446;10.840;2022-12-18T09:24:39;-6.70;87.20
31309;DHT22;17936;52.446;10.840;2022-12-18T09:27:04;-6.70;90.30
31309;DHT22;17936;52.446;10.840;2022-12-18T09:29:30;-6.70;89.40
31309;DHT22;17936;52.446;10.840;2022-12-18T09:31:55;-6.60;89.90
31309;DHT22;17936;52.446;10.840;2022-12-18T09:34:21;-6.50;90.90
31309;DHT22;17936;52.446;10.840;2022-12-18T09:36:47;-6.50;88.80
31309;DHT22;17936;52.446;10.840;2022-12-18T09:39:13;-6.50;88.60
31309;DHT22;17936;52.446;10.840;2022-12-18T09:41:53;-6.50;88.40
31309;DHT22;17936;52.446;10.840;2022-12-18T09:47:07;-6.40;91.20
31309;DHT22;17936;52.446;10.840;2022-12-18T09:49:39;-6.40;91.70
31309;DHT22;17936;52.446;10.840;2022-12-18T09:52:13;-6.40;93.20
31309;DHT22;17936;52.446;10.840;2022-12-18T09:54:45;-6.50;94.20
31309;DHT22;17936;52.446;10.840;2022-12-18T09:57:21;-6.30;97.20
31309;DHT22;17936;52.446;10.840;2022-12-18T09:59:51;-6.30;97.50
31309;DHT22;17936;52.446;10.840;2022-12-18T10:02:21;-6.30;96.30
31309;DHT22;17936;52.446;10.840;2022-12-18T10:05:20;-6.20;96.40
31309;DHT22;17936;52.446;10.840;2022-12-18T10:10:33;-6.10;95.70
31309;DHT22;17936;52.446;10.840;2022-12-18T10:13:16;-6.00;98.00
31309;DHT22;17936;52.446;10.840;2022-12-18T10:16:08;-6.10;93.40
31309;DHT22;17936;52.446;10.840;2022-12-18T10:18:59;-5.90;95.60
31309;DHT22;17936;52.446;10.840;2022-12-18T10:22:01;-5.80;94.80
31309;DHT22;17936;52.446;10.840;2022-12-18T10:24:38;-5.60;95.40
31309;DHT22;17936;52.446;10.840;2022-12-18T10:27:32;-5.60;92.30
31309;DHT22;17936;52.446;10.840;2022-12-18T10:29:58;-5.80;91.80
31309;DHT22;17936;52.446;10.840;2022-12-18T10:32:27;-5.80;93.20
31309;DHT22;17936;52.446;10.840;2022-12-18T10:34:55;-5.80;93.90
31309;DHT22;17936;52.446;10.840;2022-12-18T10:37:24;-5.70;96.20
31309;DHT22;17936;52.446;10.840;2022-12-18T10:40:11;-5.70;97.10
31309;DHT22;17936;52.446;10.840;2022-12-18T10:42:37;-5.70;94.80
31309;DHT22;17936;52.446;10.840;2022-12-18T10:45:16;-5.80;96.10
31309;DHT22;17936;52.446;10.840;2022-12-18T10:47:46;-5.60;98.50
31309;DHT22;17936;52.446;10.840;2022-12-18T10:50:30;-5.50;99.90
31309;DHT22;17936;52.446;10.840;2022-12-18T10:52:59;-5.30;99.90
31309;DHT22;17936;52.446;10.840;2022-12-18T10:55:31;-5.20;99.80
31309;DHT22;17936;52.446;10.840;2022-12-18T10:58:18;-5.10;99.60
31309;DHT22;17936;52.446;10.840;2022-12-18T11:03:35;-4.90;99.50
31309;DHT22;17936;52.446;10.840;2022-12-18T11:06:05;-4.70;99.90
31309;DHT22;17936;52.446;10.840;2022-12-18T11:08:31;-4.80;99.90
31309;DHT22;17936;52.446;10.840;2022-12-18T11:11:00;-4.80;98.70
31309;DHT22;17936;52.446;10.840;2022-12-18T11:13:27;-4.70;99.90
31309;DHT22;17936;52.446;10.840;2022-12-18T11:15:54;-4.60;99.90
31309;DHT22;17936;52.446;10.840;2022-12-18T11:18:30;-4.50;99.90
31309;DHT22;17936;52.446;10.840;2022-12-18T11:21:00;-4.50;99.60
31309;DHT22;17936;52.446;10.840;2022-12-18T11:23:31;-4.40;99.20
31309;DHT22;17936;52.446;10.840;2022-12-18T11:26:01;-4.40;99.00
31309;DHT22;17936;52.446;10.840;2022-12-18T11:28:43;-4.30;99.90
31309;DHT22;17936;52.446;10.840;2022-12-18T11:36:16;-4.20;99.90
31309;DHT22;17936;52.446;10.840;2022-12-18T11:38:44;-4.20;99.90
31309;DHT22;17936;52.446;10.840;2022-12-18T11:41:33;-4.10;99.90
31309;DHT22;17936;52.446;10.840;2022-12-18T11:44:24;-4.10;99.90
31309;DHT22;17936;52.446;10.840;2022-12-18T11:47:07;-4.10;99.90
31309;DHT22;17936;52.446;10.840;2022-12-18T11:49:35;-4.00;99.90
31309;DHT22;17936;52.446;10.840;2022-12-18T11:52:15;-4.00;99.90
31309;DHT22;17936;52.446;10.840;2022-12-18T11:54:41;-3.90;99.90
31309;DHT22;17936;52.446;10.840;2022-12-18T11:57:54;-3.90;99.90
31309;DHT22;17936;52.446;10.840;2022-12-18T12:08:20;-3.60;99.90
31309;DHT22;17936;52.446;10.840;2022-12-18T12:16:41;-3.30;99.90
31309;DHT22;17936;52.446;10.840;2022-12-18T12:19:51;-3.30;99.90
31309;DHT22;17936;52.446;10.840;2022-12-18T12:22:59;-3.30;99.90
31309;DHT22;17936;52.446;10.840;2022-12-18T12:25:47;-3.30;99.90
31309;DHT22;17936;52.446;10.840;2022-12-18T12:33:36;-3.30;99.90
31309;DHT22;17936;52.446;10.840;2022-12-18T12:38:46;-3.10;99.90
31309;DHT22;17936;52.446;10.840;2022-12-18T12:41:31;-3.00;99.90
31309;DHT22;17936;52.446;10.840;2022-12-18T12:44:22;-3.00;99.90
31309;DHT22;17936;52.446;10.840;2022-12-18T12:46:50;-2.90;99.90
31309;DHT22;17936;52.446;10.840;2022-12-18T12:49:19;-2.80;99.20
31309;DHT22;17936;52.446;10.840;2022-12-18T12:52:05;-2.80;94.80
31309;DHT22;17936;52.446;10.840;2022-12-18T12:54:32;-2.80;94.10
31309;DHT22;17936;52.446;10.840;2022-12-18T12:57:05;-2.70;92.50
31309;DHT22;17936;52.446;10.840;2022-12-18T12:59:52;-2.80;90.10
31309;DHT22;17936;52.446;10.840;2022-12-18T13:02:59;-2.80;85.70
31309;DHT22;17936;52.446;10.840;2022-12-18T13:05:59;-2.70;84.00
31309;DHT22;17936;52.446;10.840;2022-12-18T13:08:58;-2.70;77.90
31309;DHT22;17936;52.446;10.840;2022-12-18T13:11:41;-2.60;80.10
31309;DHT22;17936;52.446;10.840;2022-12-18T13:14:37;-2.60;75.80
31309;DHT22;17936;52.446;10.840;2022-12-18T13:19:55;-2.50;68.10
31309;DHT22;17936;52.446;10.840;2022-12-18T13:22:48;-2.50;99.90
31309;DHT22;17936;52.446;10.840;2022-12-18T13:25:35;-2.50;99.90
31309;DHT22;17936;52.446;10.840;2022-12-18T13:28:05;-2.50;99.90
31309;DHT22;17936;52.446;10.840;2022-12-18T13:35:42;-2.60;99.90
31309;DHT22;17936;52.446;10.840;2022-12-18T13:43:56;-2.70;99.90
31309;DHT22;17936;52.446;10.840;2022-12-18T13:46:36;-2.70;99.90
31309;DHT22;17936;52.446;10.840;2022-12-18T13:52:21;-2.90;99.90
31309;DHT22;17936;52.446;10.840;2022-12-18T13:54:50;-2.90;99.90
31309;DHT22;17936;52.446;10.840;2022-12-18T13:57:33;-2.90;99.90
31309;DHT22;17936;52.446;10.840;2022-12-18T14:00:23;-3.00;99.90
31309;DHT22;17936;52.446;10.840;2022-12-18T14:02:50;-3.10;99.90
31309;DHT22;17936;52.446;10.840;2022-12-18T14:05:43;-3.10;99.90
31309;DHT22;17936;52.446;10.840;2022-12-18T14:08:14;-3.20;99.90
31309;DHT22;17936;52.446;10.840;2022-12-18T14:10:45;-3.30;99.90
31309;DHT22;17936;52.446;10.840;2022-12-18T14:13:19;-3.30;99.90
31309;DHT22;17936;52.446;10.840;2022-12-18T14:15:47;-3.40;99.90
31309;DHT22;17936;52.446;10.840;2022-12-18T14:18:34;-3.40;99.90
31309;DHT22;17936;52.446;10.840;2022-12-18T14:21:03;-3.50;99.90
31309;DHT22;17936;52.446;10.840;2022-12-18T14:23:35;-3.50;99.90
31309;DHT22;17936;52.446;10.840;2022-12-18T14:26:18;-3.50;99.90
31309;DHT22;17936;52.446;10.840;2022-12-18T14:28:45;-3.60;99.90
31309;DHT22;17936;52.446;10.840;2022-12-18T14:31:22;-3.60;99.90
31309;DHT22;17936;52.446;10.840;2022-12-18T14:33:53;-3.60;99.90
31309;DHT22;17936;52.446;10.840;2022-12-18T14:36:21;-3.60;99.90
31309;DHT22;17936;52.446;10.840;2022-12-18T14:38:52;-3.70;99.90
31309;DHT22;17936;52.446;10.840;2022-12-18T14:41:20;-3.70;99.90
31309;DHT22;17936;52.446;10.840;2022-12-18T14:43:50;-3.70;99.90
31309;DHT22;17936;52.446;10.840;2022-12-18T14:46:49;-3.80;99.90
31309;DHT22;17936;52.446;10.840;2022-12-18T14:49:32;-3.80;99.90
31309;DHT22;17936;52.446;10.840;2022-12-18T14:52:00;-3.80;99.90
31309;DHT22;17936;52.446;10.840;2022-12-18T14:54:28;-3.80;99.90
31309;DHT22;17936;52.446;10.840;2022-12-18T14:59:50;-3.90;99.90
31309;DHT22;17936;52.446;10.840;2022-12-18T15:02:25;-3.90;99.90
31309;DHT22;17936;52.446;10.840;2022-12-18T15:05:47;-3.90;99.90
31309;DHT22;17936;52.446;10.840;2022-12-18T15:08:35;-3.90;99.90
31309;DHT22;17936;52.446;10.840;2022-12-18T15:11:02;-3.90;99.90
31309;DHT22;17936;52.446;10.840;2022-12-18T15:13:27;-3.80;99.90
31309;DHT22;17936;52.446;10.840;2022-12-18T15:15:55;-3.80;99.90
31309;DHT22;17936;52.446;10.840;2022-12-18T15:18:34;-3.80;99.90
31309;DHT22;17936;52.446;10.840;2022-12-18T15:21:08;-3.90;99.90
31309;DHT22;17936;52.446;10.840;2022-12-18T15:23:38;-3.90;99.90
31309;DHT22;17936;52.446;10.840;2022-12-18T15:26:12;-3.90;99.90
31309;DHT22;17936;52.446;10.840;2022-12-18T15:28:52;-3.80;99.90
31309;DHT22;17936;52.446;10.840;2022-12-18T15:31:33;-3.90;99.90
31309;DHT22;17936;52.446;10.840;2022-12-18T15:34:09;-3.90;99.90
31309;DHT22;17936;52.446;10.840;2022-12-18T15:36:35;-3.90;99.90
31309;DHT22;17936;52.446;10.840;2022-12-18T15:39:02;-4.00;99.90
31309;DHT22;17936;52.446;10.840;2022-12-18T15:41:31;-4.00;99.90
31309;DHT22;17936;52.446;10.840;2022-12-18T15:43:57;-4.00;99.90
31309;DHT22;17936;52.446;10.840;2022-12-18T15:46:24;-4.00;99.90
31309;DHT22;17936;52.446;10.840;2022-12-18T15:48:52;-4.00;99.90
31309;DHT22;17936;52.446;10.840;2022-12-18T15:51:34;-4.00;99.90
31309;DHT22;17936;52.446;10.840;2022-12-18T15:54:03;-4.00;99.90
31309;DHT22;17936;52.446;10.840;2022-12-18T15:56:29;-4.00;99.90
31309;DHT22;17936;52.446;10.840;2022-12-18T15:59:17;-3.90;99.90
31309;DHT22;17936;52.446;10.840;2022-12-18T16:01:45;-3.90;99.90
31309;DHT22;17936;52.446;10.840;2022-12-18T16:04:13;-3.90;99.90
31309;DHT22;17936;52.446;10.840;2022-12-18T16:06:39;-3.90;99.90
31309;DHT22;17936;52.446;10.840;2022-12-18T16:09:05;-3.90;99.90
31309;DHT22;17936;52.446;10.840;2022-12-18T16:11:32;-3.90;99.90
31309;DHT22;17936;52.446;10.840;2022-12-18T16:14:27;-3.70;99.90
31309;DHT22;17936;52.446;10.840;2022-12-18T16:17:00;-3.70;99.90
31309;DHT22;17936;52.446;10.840;2022-12-18T16:19:27;-3.80;99.90
31309;DHT22;17936;52.446;10.840;2022-12-18T16:21:55;-3.80;99.90
31309;DHT22;17936;52.446;10.840;2022-12-18T16:24:23;-3.70;99.90
31309;DHT22;17936;52.446;10.840;2022-12-18T16:26:49;-3.60;99.90
31309;DHT22;17936;52.446;10.840;2022-12-18T16:29:16;-3.60;99.90
31309;DHT22;17936;52.446;10.840;2022-12-18T16:31:42;-3.70;99.90
31309;DHT22;17936;52.446;10.840;2022-12-18T16:36:35;-3.70;99.90
31309;DHT22;17936;52.446;10.840;2022-12-18T16:39:02;-3.70;99.90
31309;DHT22;17936;52.446;10.840;2022-12-18T16:41:28;-3.70;99.90
31309;DHT22;17936;52.446;10.840;2022-12-18T16:43:56;-3.70;99.90
31309;DHT22;17936;52.446;10.840;2022-12-18T16:46:22;-3.70;99.90
31309;DHT22;17936;52.446;10.840;2022-12-18T16:48:47;-3.80;99.90
31309;DHT22;17936;52.446;10.840;2022-12-18T16:51:13;-3.80;99.90
31309;DHT22;17936;52.446;10.840;2022-12-18T16:53:38;-3.90;99.90